Time;durP1;ratioP1;P1;durP2;ratioP2;P2;SDS_P1;SDS_P2;PMS_P1;PMS_P2;Temp;Humidity;BMP_temperature;BMP_pressure;BME280_temperature;BME280_humidity;BME280_pressure;Samples;Min_cycle;Max_cycle;Signal;HPM_P1;HPM_P2
2023/05/08 00:00:19;;;;;;;0.30;0.30;;;;;;;22.61;49.83;101106.56;4533920;28;20040;-63
2023/05/08 00:02:30;;;;;;;0.47;0.30;;;;;;;22.60;49.75;101107.75;4534041;28;20540;-63
2023/05/08 00:04:40;;;;;;;0.30;0.30;;;;;;;22.57;49.82;101102.75;4534256;28;20033;-63
2023/05/08 00:06:51;;;;;;;0.30;0.30;;;;;;;22.58;49.64;101107.31;4534308;28;20052;-64
2023/05/08 00:09:02;;;;;;;0.40;0.30;;;;;;;22.60;49.87;101107.75;4533930;28;20045;-63
2023/05/08 00:11:12;;;;;;;0.80;0.30;;;;;;;22.60;49.86;101105.72;4517172;28;20124;-64
2023/05/08 00:13:23;;;;;;;0.30;0.30;;;;;;;22.58;49.65;101105.25;4535085;28;20044;-63
2023/05/08 00:15:35;;;;;;;0.20;0.20;;;;;;;22.57;50.02;101103.59;4534160;28;20466;-63
2023/05/08 00:17:45;;;;;;;0.30;0.30;;;;;;;22.54;49.77;101094.84;4534569;28;20036;-64
2023/05/08 00:19:56;;;;;;;0.20;0.20;;;;;;;22.57;49.59;101105.63;4532240;28;20048;-64
2023/05/08 00:22:06;;;;;;;0.52;0.40;;;;;;;22.58;50.05;101107.31;4533901;28;20103;-63
2023/05/08 00:24:17;;;;;;;0.20;0.20;;;;;;;22.58;49.57;101110.19;4534295;28;20029;-63
2023/05/08 00:26:27;;;;;;;0.30;0.30;;;;;;;22.57;49.64;101114.25;4533333;28;20087;-63
2023/05/08 00:28:38;;;;;;;0.20;0.20;;;;;;;22.58;49.51;101104.44;4515824;28;20045;-64
2023/05/08 00:30:48;;;;;;;0.30;0.30;;;;;;;22.57;49.78;101099.88;4533594;28;20029;-63
2023/05/08 00:32:58;;;;;;;0.35;0.28;;;;;;;22.55;49.60;101099.44;4533997;28;20037;-63
2023/05/08 00:35:09;;;;;;;0.47;0.30;;;;;;;22.57;49.71;101102.75;4533698;28;20037;-63
2023/05/08 00:37:19;;;;;;;0.25;0.25;;;;;;;22.54;49.80;101103.50;4533714;28;20083;-63
2023/05/08 00:39:30;;;;;;;0.30;0.30;;;;;;;22.54;49.69;101095.72;4533530;28;20176;-63
2023/05/08 00:41:41;;;;;;;0.20;0.20;;;;;;;22.51;49.79;101098.44;4532604;28;20040;-63
2023/05/08 00:43:52;;;;;;;0.30;0.30;;;;;;;22.54;49.76;101094.84;4534265;28;20040;-63
2023/05/08 00:46:02;;;;;;;0.55;0.32;;;;;;;22.54;49.64;101104.34;4515383;28;20057;-63
2023/05/08 00:48:13;;;;;;;0.20;0.20;;;;;;;22.50;49.67;101091.03;4532707;28;20051;-63
2023/05/08 00:50:24;;;;;;;0.45;0.32;;;;;;;22.55;49.70;101106.00;4533324;28;20032;-64
2023/05/08 00:52:35;;;;;;;0.30;0.30;;;;;;;22.49;49.46;101095.94;4532855;28;20812;-63
2023/05/08 00:54:46;;;;;;;0.38;0.30;;;;;;;22.54;49.66;101104.34;4534390;28;20736;-63
2023/05/08 00:56:56;;;;;;;0.70;0.40;;;;;;;22.51;49.52;101092.69;4515513;28;20164;-63
2023/05/08 00:59:10;;;;;;;0.30;0.30;;;;;;;22.51;49.65;101090.66;4534393;28;20033;-63
2023/05/08 01:01:21;;;;;;;0.28;0.28;;;;;;;22.52;49.91;101092.34;4515417;28;20038;-64
2023/05/08 01:03:35;;;;;;;0.30;0.30;;;;;;;22.49;49.73;101087.31;4530950;28;20093;-63
2023/05/08 01:05:45;;;;;;;0.40;0.40;;;;;;;22.50;49.80;101091.84;4533357;28;20179;-63
2023/05/08 01:07:55;;;;;;;0.25;0.25;;;;;;;22.51;49.76;101099.28;4516115;28;20084;-63
2023/05/08 01:10:06;;;;;;;0.30;0.30;;;;;;;22.52;49.66;101105.88;4516927;28;20036;-63
2023/05/08 01:12:45;;;;;;;0.43;0.40;;;;;;;22.53;49.91;101104.69;4534384;28;20036;-63
2023/05/08 01:15:09;;;;;;;0.20;0.20;;;;;;;22.51;49.51;101101.31;4515652;28;20033;-63
2023/05/08 01:17:47;;;;;;;0.40;0.40;;;;;;;22.51;49.47;101101.31;4532598;28;20029;-63
2023/05/08 01:20:16;;;;;;;0.20;0.20;;;;;;;22.50;49.72;101097.59;4516006;28;20537;-63
2023/05/08 01:23:01;;;;;;;0.25;0.25;;;;;;;22.50;49.52;101096.78;4514505;28;20037;-63
2023/05/08 01:25:35;;;;;;;0.20;0.20;;;;;;;22.47;49.91;101097.53;4533420;28;20040;-63
2023/05/08 01:28:27;;;;;;;0.25;0.25;;;;;;;22.50;49.62;101096.78;4517001;28;20158;-63
2023/05/08 01:30:49;;;;;;;0.30;0.30;;;;;;;22.49;49.56;101095.09;4467661;28;20057;-64
2023/05/08 01:33:13;;;;;;;0.20;0.20;;;;;;;22.42;49.60;101086.28;4513120;28;20715;-63
2023/05/08 01:35:33;;;;;;;0.57;0.30;;;;;;;22.48;49.54;101087.69;4531790;28;20190;-63
2023/05/08 01:37:58;;;;;;;0.30;0.30;;;;;;;22.49;49.75;101097.97;4515107;28;20033;-63
2023/05/08 01:40:20;;;;;;;0.30;0.30;;;;;;;22.47;49.49;101098.34;4515734;28;20667;-63
2023/05/08 01:43:02;;;;;;;0.80;0.30;;;;;;;22.47;49.66;101094.66;4533603;28;20124;-63
2023/05/08 01:45:20;;;;;;;0.20;0.20;;;;;;;22.46;49.57;101102.44;4506665;28;20098;-63
2023/05/08 01:47:34;;;;;;;0.30;0.30;;;;;;;22.48;49.76;101110.69;4515329;28;20045;-63
2023/05/08 01:49:55;;;;;;;0.28;0.22;;;;;;;22.41;49.91;101098.97;4532958;28;20548;-63
2023/05/08 01:52:13;;;;;;;0.30;0.30;;;;;;;22.31;50.02;101082.25;4531041;28;20045;-63
2023/05/08 01:54:28;;;;;;;0.30;0.30;;;;;;;22.44;49.65;101099.06;4514798;28;20656;-63
2023/05/08 01:56:43;;;;;;;0.63;0.28;;;;;;;22.44;49.73;101106.88;4514669;28;20107;-64
2023/05/08 01:58:56;;;;;;;0.20;0.20;;;;;;;22.46;49.92;101107.34;4531667;28;20049;-63
2023/05/08 02:01:09;;;;;;;0.30;0.30;;;;;;;22.42;49.94;101104.34;4514325;28;20033;-63
2023/05/08 02:03:22;;;;;;;1.00;0.25;;;;;;;22.44;49.85;101104.00;4533507;28;20040;-63
2023/05/08 02:05:36;;;;;;;0.30;0.30;;;;;;;22.36;49.61;101097.19;4530583;28;20037;-63
2023/05/08 02:07:48;;;;;;;0.40;0.30;;;;;;;22.43;49.70;101108.06;4533127;28;21039;-63
2023/05/08 02:10:02;;;;;;;0.40;0.40;;;;;;;22.41;49.74;101093.22;4532570;28;20033;-63
2023/05/08 02:12:16;;;;;;;0.20;0.20;;;;;;;22.44;49.64;101095.38;4514073;28;20077;-63
2023/05/08 02:14:29;;;;;;;0.43;0.20;;;;;;;22.40;49.59;101098.16;4531835;28;20076;-63
2023/05/08 02:16:42;;;;;;;0.25;0.25;;;;;;;22.44;49.79;101101.94;4531954;28;20136;-63
2023/05/08 02:18:54;;;;;;;0.30;0.30;;;;;;;22.43;49.78;101102.31;4532634;28;20033;-63
2023/05/08 02:21:05;;;;;;;0.20;0.20;;;;;;;22.44;49.82;101106.88;4505000;28;20033;-63
2023/05/08 02:23:18;;;;;;;0.30;0.30;;;;;;;22.43;49.91;101110.94;4532214;28;20040;-63
2023/05/08 02:25:30;;;;;;;0.28;0.28;;;;;;;22.42;49.77;101106.41;4530403;28;20041;-64
2023/05/08 02:27:44;;;;;;;0.30;0.30;;;;;;;22.43;49.53;101105.19;4532521;28;20147;-63
2023/05/08 02:29:55;;;;;;;0.30;0.30;;;;;;;22.41;49.91;101102.69;4532739;28;20029;-63
2023/05/08 02:32:07;;;;;;;0.30;0.30;;;;;;;22.41;49.93;101104.72;4533199;28;20041;-63
2023/05/08 02:34:20;;;;;;;0.20;0.20;;;;;;;22.40;49.63;101098.16;4514435;28;20032;-63
2023/05/08 02:36:31;;;;;;;0.32;0.32;;;;;;;22.42;49.69;101103.53;4533845;28;20702;-63
2023/05/08 02:38:44;;;;;;;0.30;0.30;;;;;;;22.40;49.67;101097.31;4514739;28;20041;-63
2023/05/08 02:40:59;;;;;;;0.63;0.47;;;;;;;22.41;49.60;101098.97;4531619;28;20073;-63
2023/05/08 02:43:11;;;;;;;0.30;0.30;;;;;;;22.41;50.06;101104.72;4513846;28;20072;-64
2023/05/08 02:45:31;;;;;;;0.25;0.25;;;;;;;22.40;49.45;101103.06;4531991;28;20056;-63
2023/05/08 02:48:08;;;;;;;0.20;0.20;;;;;;;22.40;49.72;101101.03;4514512;28;20040;-63
2023/05/08 02:50:26;;;;;;;0.30;0.30;;;;;;;22.41;49.68;101101.84;4530549;28;20036;-63
2023/05/08 02:52:53;;;;;;;0.22;0.20;;;;;;;22.37;49.50;101098.88;4514674;28;20045;-63
2023/05/08 02:55:05;;;;;;;0.40;0.40;;;;;;;22.39;49.42;101099.34;4532250;28;20029;-63
2023/05/08 02:57:41;;;;;;;0.30;0.30;;;;;;;22.38;49.41;101097.69;4514629;28;20142;-63
2023/05/08 03:00:01;;;;;;;0.30;0.30;;;;;;;22.39;49.54;101098.53;4531406;28;20045;-63
2023/05/08 03:02:16;;;;;;;0.30;0.30;;;;;;;22.38;49.79;101100.56;4531307;28;20029;-63
2023/05/08 03:04:44;;;;;;;0.30;0.30;;;;;;;22.39;49.52;101092.78;4530616;28;20512;-64
2023/05/08 03:06:57;;;;;;;0.30;0.30;;;;;;;22.38;49.63;101093.94;4531182;28;20595;-63
2023/05/08 03:09:15;;;;;;;0.30;0.30;;;;;;;22.38;49.74;101093.94;4514637;28;20044;-63
2023/05/08 03:11:52;;;;;;;0.30;0.30;;;;;;;22.33;49.81;101099.97;4532736;28;20126;-63
2023/05/08 03:14:08;;;;;;;0.30;0.30;;;;;;;22.23;49.80;101076.28;4532499;28;20029;-63
2023/05/08 03:16:21;;;;;;;0.30;0.30;;;;;;;22.36;49.45;101094.31;4514811;28;20152;-64
2023/05/08 03:18:35;;;;;;;0.30;0.30;;;;;;;22.37;49.93;101092.28;4535195;28;20561;-65
2023/05/08 03:20:51;;;;;;;0.20;0.20;;;;;;;22.36;49.80;101091.44;4533196;28;20038;-63
2023/05/08 03:23:03;;;;;;;0.22;0.20;;;;;;;22.36;49.47;101090.63;4517996;28;20027;-63
2023/05/08 03:25:17;;;;;;;0.30;0.30;;;;;;;22.34;49.55;101099.63;4535244;28;20612;-63
2023/05/08 03:27:29;;;;;;;0.30;0.30;;;;;;;22.36;49.31;101097.19;4518883;28;20033;-63
2023/05/08 03:29:40;;;;;;;0.20;0.20;;;;;;;22.34;49.80;101098.78;4516402;28;20068;-63
2023/05/08 03:31:53;;;;;;;0.20;0.20;;;;;;;22.33;49.91;101099.97;4533018;28;20776;-63
2023/05/08 03:34:03;;;;;;;0.30;0.30;;;;;;;22.33;49.71;101089.31;4533811;28;20077;-63
2023/05/08 03:36:14;;;;;;;0.30;0.30;;;;;;;22.33;49.48;101085.59;4500144;28;20038;-63
2023/05/08 03:38:25;;;;;;;0.30;0.30;;;;;;;22.34;49.65;101087.28;4516644;28;20638;-63
2023/05/08 03:40:41;;;;;;;0.40;0.38;;;;;;;22.28;49.88;101080.13;4533201;28;20778;-63
2023/05/08 03:42:52;;;;;;;0.35;0.30;;;;;;;22.34;49.50;101098.78;4516946;28;20139;-63
2023/05/08 03:45:03;;;;;;;0.32;0.30;;;;;;;22.34;49.87;101095.91;4535129;28;20469;-63
2023/05/08 03:47:16;;;;;;;0.40;0.40;;;;;;;22.29;49.78;101085.50;4516293;28;20186;-63
2023/05/08 03:49:28;;;;;;;0.73;0.30;;;;;;;22.33;49.75;101082.72;4534873;28;20033;-63
2023/05/08 03:51:39;;;;;;;0.30;0.30;;;;;;;22.34;49.69;101087.28;4516082;28;20049;-63
2023/05/08 03:53:49;;;;;;;0.47;0.22;;;;;;;22.33;49.59;101099.97;4515460;28;20040;-63
2023/05/08 03:56:01;;;;;;;0.28;0.28;;;;;;;22.16;49.94;101061.72;4515423;28;20037;-63
2023/05/08 03:58:27;;;;;;;1.02;0.38;;;;;;;22.33;49.77;101094.22;4534292;28;20040;-63
2023/05/08 04:00:57;;;;;;;0.45;0.30;;;;;;;22.32;49.60;101098.31;4532269;28;20040;-63
2023/05/08 04:03:42;;;;;;;0.30;0.30;;;;;;;22.32;49.73;101087.66;4531821;28;20880;-63
2023/05/08 04:06:11;;;;;;;0.30;0.30;;;;;;;22.32;49.53;101083.94;4515675;28;20117;-63
2023/05/08 04:08:27;;;;;;;0.40;0.40;;;;;;;22.32;49.75;101095.44;4532435;28;20037;-65
2023/05/08 04:10:45;;;;;;;0.28;0.28;;;;;;;22.30;49.68;101086.31;4533002;28;20044;-63
2023/05/08 04:13:10;;;;;;;0.30;0.30;;;;;;;22.32;49.93;101098.31;4514300;28;20041;-64
2023/05/08 04:15:31;;;;;;;0.30;0.30;;;;;;;22.30;49.43;101098.66;4531246;28;20751;-63
2023/05/08 04:17:52;;;;;;;0.40;0.40;;;;;;;22.32;49.57;101096.28;4532094;28;20024;-63
2023/05/08 04:20:05;;;;;;;0.30;0.30;;;;;;;22.31;49.76;101088.03;4532326;28;20128;-63
2023/05/08 04:22:22;;;;;;;0.30;0.30;;;;;;;22.31;49.90;101088.03;4531079;28;21069;-63
2023/05/08 04:24:36;;;;;;;0.50;0.30;;;;;;;22.26;49.74;101073.91;4498360;28;20077;-63
2023/05/08 04:26:47;;;;;;;0.25;0.25;;;;;;;22.29;49.95;101084.66;4531860;28;20083;-63
2023/05/08 04:28:59;;;;;;;0.30;0.30;;;;;;;22.27;49.55;101085.03;4515994;28;20064;-63
2023/05/08 04:31:10;;;;;;;1.10;0.35;;;;;;;22.28;49.75;101089.56;4532435;28;20045;-63
2023/05/08 04:33:21;;;;;;;0.30;0.30;;;;;;;22.25;49.46;101086.63;4515413;28;20056;-63
2023/05/08 04:35:33;;;;;;;0.35;0.35;;;;;;;22.30;49.66;101092.06;4514896;28;20136;-63
2023/05/08 04:37:45;;;;;;;0.52;0.30;;;;;;;22.26;49.33;101085.41;4533501;28;20056;-63
2023/05/08 04:39:55;;;;;;;0.30;0.30;;;;;;;22.26;49.75;101086.25;4507424;28;20069;-64
2023/05/08 04:42:07;;;;;;;0.30;0.20;;;;;;;22.25;49.78;101084.56;4532722;28;20033;-66
2023/05/08 04:44:18;;;;;;;0.73;0.30;;;;;;;22.27;49.89;101093.66;4513370;28;20731;-63
2023/05/08 04:46:29;;;;;;;0.30;0.30;;;;;;;22.27;49.75;101099.41;4498750;28;20038;-63
2023/05/08 04:48:40;;;;;;;0.30;0.30;;;;;;;22.23;49.82;101081.22;4531659;28;20124;-63
2023/05/08 04:50:50;;;;;;;0.22;0.22;;;;;;;22.28;49.93;101100.25;4514389;28;20080;-63
2023/05/08 04:53:01;;;;;;;0.20;0.20;;;;;;;22.27;49.86;101087.91;4533702;28;20311;-63
2023/05/08 04:55:11;;;;;;;0.57;0.30;;;;;;;22.27;49.43;101090.78;4514387;28;20533;-63
2023/05/08 04:57:22;;;;;;;0.20;0.20;;;;;;;22.25;49.59;101090.31;4532556;28;20037;-63
2023/05/08 04:59:33;;;;;;;0.32;0.32;;;;;;;22.24;49.54;101094.41;4533258;28;20478;-63
2023/05/08 05:01:46;;;;;;;0.30;0.30;;;;;;;22.25;49.73;101095.25;4533096;28;20033;-63
2023/05/08 05:03:56;;;;;;;0.25;0.25;;;;;;;22.26;49.73;101096.91;4534897;28;21449;-63
2023/05/08 05:06:07;;;;;;;0.38;0.30;;;;;;;22.26;49.21;101105.53;4533142;28;20029;-63
2023/05/08 05:08:17;;;;;;;0.30;0.30;;;;;;;22.09;49.91;101075.88;4534212;28;20075;-63
2023/05/08 05:10:28;;;;;;;0.30;0.30;;;;;;;22.26;49.43;101105.53;4515906;28;20054;-64
2023/05/08 05:12:38;;;;;;;0.30;0.30;;;;;;;22.23;49.50;101103.38;4515258;28;20080;-64
2023/05/08 05:14:49;;;;;;;0.38;0.30;;;;;;;22.19;49.62;101095.50;4532382;28;20132;-63
2023/05/08 05:17:00;;;;;;;0.30;0.30;;;;;;;22.25;49.68;101106.75;4515615;28;20022;-65
2023/05/08 05:19:10;;;;;;;0.30;0.30;;;;;;;22.21;49.52;101101.69;4515757;28;20037;-63
2023/05/08 05:21:22;;;;;;;0.45;0.38;;;;;;;22.24;49.90;101108.78;4532469;28;20036;-63
2023/05/08 05:23:32;;;;;;;0.43;0.20;;;;;;;22.23;49.40;101103.38;4513264;28;20492;-63
2023/05/08 05:25:44;;;;;;;0.52;0.30;;;;;;;22.19;49.48;101109.88;4515854;28;20044;-63
2023/05/08 05:27:54;;;;;;;0.30;0.30;;;;;;;22.19;49.72;101103.28;4533291;28;20029;-63
2023/05/08 05:30:05;;;;;;;0.30;0.30;;;;;;;22.23;49.66;101109.16;4532956;28;20079;-63
2023/05/08 05:32:16;;;;;;;0.30;0.30;;;;;;;22.23;49.60;101113.69;4514643;28;20140;-64
2023/05/08 05:34:27;;;;;;;0.30;0.20;;;;;;;22.21;49.90;101109.50;4530956;28;20539;-63
2023/05/08 05:36:38;;;;;;;0.50;0.32;;;;;;;22.21;49.47;101107.44;4531314;28;20060;-63
2023/05/08 05:38:48;;;;;;;0.38;0.38;;;;;;;22.20;49.82;101119.31;4514786;28;20049;-63
2023/05/08 05:40:59;;;;;;;0.30;0.30;;;;;;;22.22;49.82;101119.78;4531367;28;20036;-63
2023/05/08 05:43:10;;;;;;;0.30;0.30;;;;;;;22.23;49.72;101121.50;4514668;28;20041;-64
2023/05/08 05:45:21;;;;;;;0.40;0.40;;;;;;;22.17;49.80;101115.16;4531168;28;20039;-64
2023/05/08 05:47:31;;;;;;;0.30;0.30;;;;;;;22.20;49.37;101120.16;4514791;28;20092;-63
2023/05/08 05:49:45;;;;;;;0.43;0.40;;;;;;;22.17;49.76;101123.78;4514628;28;20040;-64
2023/05/08 05:51:56;;;;;;;0.20;0.20;;;;;;;22.15;49.89;101126.16;4531738;28;20065;-64
2023/05/08 05:54:06;;;;;;;0.30;0.30;;;;;;;22.21;49.61;101127.56;4514667;28;20525;-63
2023/05/08 05:56:18;;;;;;;0.28;0.28;;;;;;;22.18;49.57;101131.19;4514081;28;20534;-63
2023/05/08 05:58:28;;;;;;;0.20;0.20;;;;;;;22.21;50.12;101135.38;4514514;28;20033;-63
2023/05/08 06:00:39;;;;;;;0.30;0.30;;;;;;;22.20;49.94;101140.28;4531353;28;20039;-63
2023/05/08 06:02:49;;;;;;;0.30;0.30;;;;;;;22.19;49.52;101138.63;4530537;28;20592;-63
2023/05/08 06:05:01;;;;;;;0.30;0.30;;;;;;;22.19;49.45;101144.38;4514127;28;20073;-63
2023/05/08 06:07:11;;;;;;;0.28;0.20;;;;;;;22.20;49.71;101146.03;4514637;28;20033;-63
2023/05/08 06:09:22;;;;;;;0.45;0.30;;;;;;;22.18;49.68;101145.56;4530900;28;20033;-63
2023/05/08 06:11:35;;;;;;;0.20;0.20;;;;;;;22.16;49.60;101145.13;4514104;28;20048;-63
2023/05/08 06:13:45;;;;;;;0.38;0.30;;;;;;;22.10;49.79;101129.28;4531863;28;20120;-63
2023/05/08 06:15:56;;;;;;;0.52;0.22;;;;;;;22.09;49.62;101121.88;4530506;28;20063;-64
2023/05/08 06:18:07;;;;;;;0.30;0.30;;;;;;;22.20;49.53;101148.91;4514149;28;20720;-63
2023/05/08 06:20:18;;;;;;;0.30;0.30;;;;;;;22.20;49.83;101142.31;4531220;28;20060;-63
2023/05/08 06:22:29;;;;;;;0.30;0.30;;;;;;;22.19;49.67;101140.66;4513444;28;20180;-63
2023/05/08 06:24:39;;;;;;;0.20;0.20;;;;;;;22.18;49.57;101145.56;4514642;28;20104;-63
2023/05/08 06:26:50;;;;;;;0.20;0.20;;;;;;;22.19;49.83;101150.13;4532113;28;20041;-63
2023/05/08 06:29:00;;;;;;;0.47;0.47;;;;;;;22.08;49.44;101137.47;4532430;28;20677;-63
2023/05/08 06:31:11;;;;;;;0.30;0.30;;;;;;;22.19;49.59;101155.88;4531853;28;20307;-63
2023/05/08 06:33:21;;;;;;;0.20;0.20;;;;;;;22.18;49.75;101154.19;4531940;28;20033;-63
2023/05/08 06:35:32;;;;;;;0.40;0.30;;;;;;;22.19;49.52;101158.75;4530425;28;20037;-63
2023/05/08 06:37:42;;;;;;;0.40;0.30;;;;;;;22.20;49.81;101160.41;4530581;28;20032;-63
2023/05/08 06:39:53;;;;;;;0.30;0.30;;;;;;;22.20;49.57;101160.41;4532913;28;20033;-63
2023/05/08 06:42:05;;;;;;;0.40;0.40;;;;;;;22.21;49.74;101167.03;4514224;28;20560;-63
2023/05/08 06:44:15;;;;;;;0.30;0.30;;;;;;;22.18;49.71;101162.81;4531622;28;20043;-63
2023/05/08 06:46:26;;;;;;;0.20;0.20;;;;;;;22.19;49.67;101158.75;4532170;28;20033;-63
2023/05/08 06:48:36;;;;;;;0.20;0.20;;;;;;;22.19;49.69;101166.53;4531359;28;20671;-63
2023/05/08 06:50:47;;;;;;;0.20;0.20;;;;;;;22.18;49.37;101162.81;4530762;28;20201;-63
2023/05/08 06:52:57;;;;;;;0.55;0.30;;;;;;;22.15;49.46;101159.84;4534423;28;20045;-63
2023/05/08 06:55:08;;;;;;;0.20;0.20;;;;;;;22.21;49.35;101167.03;4534637;28;20037;-63
2023/05/08 06:57:18;;;;;;;0.47;0.30;;;;;;;22.18;49.21;101165.69;4534205;28;20147;-63
2023/05/08 06:59:29;;;;;;;0.20;0.20;;;;;;;22.20;49.45;101171.06;4535344;28;20032;-64
2023/05/08 07:01:40;;;;;;;0.30;0.30;;;;;;;22.21;49.35;101167.84;4533510;28;20596;-63
2023/05/08 07:04:40;;;;;;;0.20;0.20;;;;;;;22.22;49.71;101177.31;4534482;28;20056;-63
2023/05/08 07:07:41;;;;;;;0.20;0.20;;;;;;;22.22;49.70;101174.44;4534855;28;20056;-63
2023/05/08 07:12:40;;;;;;;0.52;0.30;;;;;;;22.20;49.58;101180.56;4535089;28;20053;-63
2023/05/08 07:15:40;;;;;;;0.30;0.22;;;;;;;22.21;49.49;101170.72;4535083;28;20049;-64
2023/05/08 07:17:50;;;;;;;0.20;0.20;;;;;;;22.18;50.05;101168.56;4534718;28;20073;-65
2023/05/08 07:20:02;;;;;;;0.25;0.20;;;;;;;22.20;49.87;101166.16;4518297;28;20371;-65
2023/05/08 07:22:12;;;;;;;0.20;0.20;;;;;;;22.14;49.67;101164.75;4533841;28;20982;-65
2023/05/08 07:24:23;;;;;;;0.38;0.22;;;;;;;22.16;49.82;101168.13;4533324;28;20033;-64
2023/05/08 07:37:41;;;;;;;0.45;0.40;;;;;;;22.19;49.70;101172.28;4534131;28;20124;-63
2023/05/08 07:40:41;;;;;;;0.93;0.30;;;;;;;22.19;49.55;101173.13;4534512;28;20056;-64
2023/05/08 07:43:42;;;;;;;3.60;0.90;;;;;;;22.17;49.39;101169.78;4535079;28;20167;-63
2023/05/08 07:46:40;;;;;;;5.32;1.70;;;;;;;22.13;50.39;101163.09;4515760;28;20049;-63
2023/05/08 07:49:40;;;;;;;5.95;2.00;;;;;;;22.15;50.15;101166.41;4534575;28;20602;-63
2023/05/08 08:22:39;;;;;;;0.50;0.50;;;;;;;22.17;50.07;101141.03;4534657;28;20044;-63
2023/05/08 08:31:47;;;;;;;0.82;0.50;;;;;;;22.16;50.36;101133.63;4533694;28;20057;-63
2023/05/08 08:38:38;;;;;;;1.40;0.70;;;;;;;22.20;50.42;101134.53;4533015;28;20048;-63
2023/05/08 08:41:38;;;;;;;1.75;0.70;;;;;;;22.22;50.16;101131.31;4533044;28;21181;-63
2023/05/08 08:44:39;;;;;;;2.60;0.70;;;;;;;22.25;50.28;101133.44;4532264;28;20037;-63
2023/05/08 08:47:41;;;;;;;2.33;0.70;;;;;;;22.23;50.42;101137.91;4534034;28;20033;-64
2023/05/08 08:50:38;;;;;;;2.05;0.93;;;;;;;22.25;50.19;101135.50;4533947;28;20045;-63
2023/05/08 08:53:38;;;;;;;1.83;0.93;;;;;;;22.26;50.41;101128.53;4533392;28;20043;-63
2023/05/08 08:56:39;;;;;;;2.38;0.80;;;;;;;22.11;50.02;101101.41;4533858;28;20512;-63
2023/05/08 08:59:39;;;;;;;3.05;0.90;;;;;;;22.27;50.46;101133.06;4534400;28;20047;-63
2023/05/08 09:02:39;;;;;;;1.23;0.70;;;;;;;22.29;50.20;101133.56;4533151;28;20769;-63
2023/05/08 09:05:39;;;;;;;3.95;0.90;;;;;;;22.30;50.26;101136.06;4533626;28;20037;-63
2023/05/08 09:08:40;;;;;;;2.65;0.90;;;;;;;22.31;50.04;101134.03;4533957;28;20175;-63
2023/05/08 09:11:40;;;;;;;1.77;0.70;;;;;;;22.32;50.05;101132.81;4533191;28;20048;-64
2023/05/08 09:14:41;;;;;;;2.22;0.80;;;;;;;22.32;50.14;101141.44;4532287;28;20041;-63
2023/05/08 09:17:41;;;;;;;1.45;0.70;;;;;;;22.33;50.36;101128.72;4533808;28;20032;-63
2023/05/08 09:20:41;;;;;;;1.60;0.80;;;;;;;22.34;50.20;101128.38;4533482;28;20610;-63
2023/05/08 09:37:40;;;;;;;0.65;0.60;;;;;;;22.36;50.26;101130.91;4534304;28;20056;-63
2023/05/08 09:40:41;;;;;;;2.13;0.70;;;;;;;22.36;49.99;101130.91;4534435;28;20486;-63
2023/05/08 09:43:41;;;;;;;1.70;0.68;;;;;;;22.36;50.20;101136.66;4533875;28;20048;-63
2023/05/08 09:46:39;;;;;;;1.15;0.60;;;;;;;22.37;49.75;101132.56;4533284;28;20497;-63
2023/05/08 09:49:39;;;;;;;1.08;0.60;;;;;;;22.39;50.08;101133.03;4533029;28;20041;-63
2023/05/08 09:52:40;;;;;;;2.65;0.75;;;;;;;22.37;50.27;101138.31;4533937;28;20112;-63
2023/05/08 09:55:40;;;;;;;1.05;0.60;;;;;;;22.38;50.13;101143.69;4533800;28;20045;-63
2023/05/08 09:58:40;;;;;;;1.23;0.70;;;;;;;22.38;49.97;101140.81;4532453;28;21075;-64
2023/05/08 10:01:40;;;;;;;2.08;0.75;;;;;;;22.39;50.15;101139.59;4532100;28;20047;-64
2023/05/08 10:04:41;;;;;;;1.33;0.77;;;;;;;22.40;49.84;101144.19;4532618;28;20680;-63
2023/05/08 10:07:41;;;;;;;1.27;0.52;;;;;;;22.41;50.31;101133.47;4533155;28;21015;-63
2023/05/08 10:10:39;;;;;;;1.50;0.68;;;;;;;22.41;50.26;101142.13;4532850;28;20076;-64
2023/05/08 10:19:40;;;;;;;1.02;0.82;;;;;;;22.43;50.28;101136.84;4533364;28;20033;-64
2023/05/08 10:22:42;;;;;;;1.92;0.70;;;;;;;22.44;49.90;101141.41;4534063;28;20120;-63
2023/05/08 10:31:57;;;;;;;1.35;0.70;;;;;;;22.45;50.13;101145.94;4533234;28;21256;-63
2023/05/08 10:34:40;;;;;;;0.82;0.50;;;;;;;22.45;50.15;101137.31;4534171;28;20049;-63
2023/05/08 10:40:40;;;;;;;1.27;0.60;;;;;;;22.45;49.76;101129.53;4534188;28;20053;-65
2023/05/08 10:43:41;;;;;;;1.27;0.60;;;;;;;22.47;49.98;101134.91;4534306;28;20049;-64
2023/05/08 10:46:43;;;;;;;1.52;0.70;;;;;;;22.48;49.80;101125.91;4533570;28;20658;-63
2023/05/08 10:52:41;;;;;;;1.00;0.68;;;;;;;22.49;50.04;101118.09;4533512;28;20485;-64
2023/05/08 10:55:36;;;;;;;1.08;0.70;;;;;;;22.50;49.91;101126.38;4533214;28;20096;-63
2023/05/08 10:58:08;;;;;;;0.82;0.50;;;;;;;22.50;50.22;101114.84;4534281;28;20056;-64
2023/05/08 11:00:18;;;;;;;1.02;0.50;;;;;;;22.37;49.83;101095.16;4514787;28;20172;-63
2023/05/08 11:02:30;;;;;;;1.05;0.50;;;;;;;22.51;50.18;101115.69;4531727;28;20102;-63
2023/05/08 11:04:41;;;;;;;1.67;0.73;;;;;;;22.52;49.93;101117.41;4532159;28;20051;-64
2023/05/08 11:06:52;;;;;;;1.35;0.50;;;;;;;22.51;50.17;101110.78;4534519;28;20374;-64
2023/05/08 11:09:02;;;;;;;1.00;0.60;;;;;;;22.43;49.85;101090.81;4532626;28;20037;-64
2023/05/08 11:11:17;;;;;;;0.60;0.60;;;;;;;22.50;50.07;101100.47;4532915;28;20090;-64
2023/05/08 11:13:32;;;;;;;1.38;0.60;;;;;;;22.52;49.69;101114.53;4532719;28;20645;-64
2023/05/08 11:15:49;;;;;;;0.77;0.50;;;;;;;22.51;50.02;101099.28;4533082;28;20556;-64
2023/05/08 11:18:03;;;;;;;1.15;0.60;;;;;;;22.52;49.74;101103.00;4532519;28;20064;-64
2023/05/08 11:20:13;;;;;;;0.47;0.47;;;;;;;22.51;49.75;101098.44;4533339;28;20131;-63
2023/05/08 11:22:25;;;;;;;0.98;0.60;;;;;;;22.53;49.57;101101.84;4532928;28;20037;-63
2023/05/08 11:24:37;;;;;;;0.95;0.60;;;;;;;22.55;49.62;101117.50;4532380;28;20044;-63
2023/05/08 11:26:48;;;;;;;0.80;0.55;;;;;;;22.55;50.05;101111.75;4533288;28;20029;-64
2023/05/08 11:28:58;;;;;;;0.65;0.50;;;;;;;22.54;50.16;101103.50;4532922;28;20041;-63
2023/05/08 11:31:08;;;;;;;1.08;0.50;;;;;;;22.55;49.76;101100.25;4533201;28;20421;-63
2023/05/08 11:33:19;;;;;;;0.80;0.50;;;;;;;22.55;49.97;101099.44;4532987;28;20041;-64
2023/05/08 11:35:40;;;;;;;1.30;0.60;;;;;;;22.57;50.03;101102.75;4532686;28;20039;-63
2023/05/08 11:38:13;;;;;;;0.98;0.60;;;;;;;22.52;50.14;101100.97;4534950;28;20041;-63
2023/05/08 11:40:47;;;;;;;1.13;0.82;;;;;;;22.56;49.89;101107.69;4535118;28;20792;-63
2023/05/08 11:42:58;;;;;;;0.65;0.40;;;;;;;22.52;49.83;101094.38;4535578;28;20744;-63
2023/05/08 11:45:12;;;;;;;0.50;0.50;;;;;;;22.52;49.58;101091.50;4535975;28;20040;-63
2023/05/08 11:47:30;;;;;;;0.80;0.60;;;;;;;22.59;49.91;101106.09;4535908;28;20064;-63
2023/05/08 11:49:41;;;;;;;0.73;0.50;;;;;;;22.58;49.95;101098.69;4536280;28;20039;-63
2023/05/08 11:51:56;;;;;;;0.77;0.60;;;;;;;22.59;49.24;101094.59;4536182;28;20149;-63
2023/05/08 11:54:08;;;;;;;1.33;0.60;;;;;;;22.58;49.63;101096.63;4535569;28;20056;-63
2023/05/08 11:56:18;;;;;;;0.77;0.50;;;;;;;22.57;49.94;101094.13;4535957;28;20025;-63
2023/05/08 11:58:29;;;;;;;1.25;0.50;;;;;;;22.60;49.59;101094.22;4517409;28;20034;-63
2023/05/08 12:00:44;;;;;;;0.88;0.52;;;;;;;22.60;49.72;101097.09;4535713;28;20040;-63
2023/05/08 12:02:55;;;;;;;0.55;0.50;;;;;;;22.60;49.52;101094.22;4535144;28;20340;-64
2023/05/08 12:05:06;;;;;;;1.02;0.60;;;;;;;22.56;49.66;101084.66;4535448;28;20402;-64
2023/05/08 12:07:17;;;;;;;0.80;0.55;;;;;;;22.48;50.04;101064.66;4534429;28;20029;-63
2023/05/08 12:09:28;;;;;;;0.50;0.50;;;;;;;22.63;49.81;101086.91;4535350;28;20025;-64
2023/05/08 12:11:42;;;;;;;0.65;0.50;;;;;;;22.61;49.90;101084.38;4536063;28;20560;-65
2023/05/08 12:13:53;;;;;;;1.00;0.52;;;;;;;22.61;49.60;101084.38;4533949;28;20045;-63
2023/05/08 12:16:04;;;;;;;1.02;0.55;;;;;;;22.63;49.71;101081.16;4535809;28;20029;-64
2023/05/08 12:18:16;;;;;;;0.68;0.50;;;;;;;22.62;49.55;101083.19;4535061;28;20071;-63
2023/05/08 12:20:26;;;;;;;0.95;0.55;;;;;;;22.63;49.72;101084.84;4517350;28;20033;-64
2023/05/08 12:22:38;;;;;;;0.82;0.77;;;;;;;22.62;49.64;101076.59;4516213;28;20037;-63